createdAt,value
2018-09-28T00:00:35.863Z,1016.15
2018-09-28T00:01:35.792Z,1016.12
2018-09-28T00:02:35.711Z,1016.12
2018-09-28T00:03:35.633Z,1016.08
2018-09-28T00:04:35.559Z,1016.12
2018-09-28T00:05:35.484Z,1016.11
2018-09-28T00:06:35.410Z,1016.13
2018-09-28T00:07:35.331Z,1016.07
2018-09-28T00:08:35.253Z,1016.09
2018-09-28T00:09:35.178Z,1016.07
2018-09-28T00:10:35.122Z,1016.09
2018-09-28T00:11:35.026Z,1016.05
2018-09-28T00:12:34.950Z,1016.00
2018-09-28T00:13:34.875Z,1016.02
2018-09-28T00:14:34.804Z,1015.98
2018-09-28T00:15:34.720Z,1015.93
2018-09-28T00:16:34.645Z,1015.93
2018-09-28T00:17:34.571Z,1015.93
2018-09-28T00:18:34.495Z,1015.89
2018-09-28T00:19:34.413Z,1015.88
2018-09-28T00:20:34.337Z,1015.86
2018-09-28T00:21:34.264Z,1015.87
2018-09-28T00:22:34.188Z,1015.83
2018-09-28T00:23:34.110Z,1015.88
2018-09-28T00:24:34.033Z,1015.83
2018-09-28T00:25:33.961Z,1015.89
2018-09-28T00:26:33.884Z,1015.91
2018-09-28T00:27:33.803Z,1015.90
2018-09-28T00:28:33.728Z,1015.89
2018-09-28T00:29:33.651Z,1015.92
2018-09-28T00:30:33.583Z,1015.92
2018-09-28T00:31:33.504Z,1015.91
2018-09-28T00:32:33.422Z,1015.93
2018-09-28T00:33:33.346Z,1015.89
2018-09-28T00:34:33.269Z,1015.98
2018-09-28T00:35:33.194Z,1015.98
2018-09-28T00:36:33.117Z,1015.95
2018-09-28T00:37:33.040Z,1015.95
2018-09-28T00:38:32.968Z,1015.94
2018-09-28T00:39:32.887Z,1015.94
2018-09-28T00:40:32.814Z,1015.96
2018-09-28T00:41:32.736Z,1015.95
2018-09-28T00:42:32.661Z,1016.01
2018-09-28T00:43:32.583Z,1016.01
2018-09-28T00:44:32.510Z,1016.01
2018-09-28T00:45:32.427Z,1016.04
2018-09-28T00:46:32.352Z,1016.02
2018-09-28T00:47:32.277Z,1016.02
2018-09-28T00:48:32.202Z,1015.99
2018-09-28T00:49:32.123Z,1015.99
2018-09-28T00:50:32.052Z,1016.02
2018-09-28T00:51:31.972Z,1015.98
2018-09-28T00:52:31.893Z,1015.98
2018-09-28T00:53:31.819Z,1015.98
2018-09-28T00:54:31.743Z,1015.96
2018-09-28T00:55:31.667Z,1015.97
2018-09-28T00:56:31.588Z,1015.99
2018-09-28T00:57:31.517Z,1015.94
2018-09-28T00:58:31.438Z,1015.91
2018-09-28T00:59:31.362Z,1015.91
2018-09-28T01:00:31.288Z,1015.87
2018-09-28T01:01:31.211Z,1015.86
2018-09-28T01:02:31.130Z,1015.86
2018-09-28T01:03:31.055Z,1015.84
2018-09-28T01:04:30.981Z,1015.92
2018-09-28T01:05:30.903Z,1015.89
2018-09-28T01:06:30.826Z,1015.93
2018-09-28T01:07:30.749Z,1015.91
2018-09-28T01:08:30.669Z,1015.90
2018-09-28T01:09:30.598Z,1015.90
2018-09-28T01:10:30.521Z,1015.84
2018-09-28T01:11:30.443Z,1015.85
2018-09-28T01:12:30.368Z,1015.84
2018-09-28T01:13:30.292Z,1015.84
2018-09-28T01:14:30.215Z,1015.84
2018-09-28T01:15:30.140Z,1015.88
2018-09-28T01:16:30.063Z,1015.86
2018-09-28T01:17:29.985Z,1015.90
2018-09-28T01:18:29.908Z,1015.83
2018-09-28T01:19:29.832Z,1015.87
2018-09-28T01:20:29.755Z,1015.82
2018-09-28T01:21:29.679Z,1015.83
2018-09-28T01:22:29.603Z,1015.78
2018-09-28T01:23:29.532Z,1015.82
2018-09-28T01:24:29.525Z,1015.83
2018-09-28T01:25:29.375Z,1015.83
2018-09-28T01:26:29.300Z,1015.83
2018-09-28T01:27:29.219Z,1015.83
2018-09-28T01:28:29.143Z,1015.82
2018-09-28T01:29:29.067Z,1015.76
2018-09-28T01:30:28.990Z,1015.77
2018-09-28T01:31:28.913Z,1015.73
2018-09-28T01:32:28.836Z,1015.72
2018-09-28T01:33:28.759Z,1015.75
2018-09-28T01:34:28.683Z,1015.79
2018-09-28T01:35:28.608Z,1015.75
2018-09-28T01:36:28.529Z,1015.78
2018-09-28T01:37:28.454Z,1015.77
2018-09-28T01:38:28.377Z,1015.80
2018-09-28T01:39:28.297Z,1015.77
2018-09-28T01:40:28.221Z,1015.81
2018-09-28T01:41:28.149Z,1015.81
2018-09-28T01:42:28.068Z,1015.77
2018-09-28T01:43:27.990Z,1015.87
2018-09-28T01:44:27.910Z,1015.82
2018-09-28T01:45:27.838Z,1015.78
2018-09-28T01:46:27.766Z,1015.74
2018-09-28T01:47:27.683Z,1015.76
2018-09-28T01:48:27.605Z,1015.76
2018-09-28T01:49:27.533Z,1015.79
2018-09-28T01:50:27.454Z,1015.86
2018-09-28T01:51:27.375Z,1015.85
2018-09-28T01:52:27.304Z,1015.87
2018-09-28T01:53:27.221Z,1015.80
2018-09-28T01:54:27.147Z,1015.82
2018-09-28T01:55:27.065Z,1015.83
2018-09-28T01:56:26.995Z,1015.82
2018-09-28T01:57:26.911Z,1015.81
2018-09-28T01:58:26.836Z,1015.85
2018-09-28T01:59:26.757Z,1015.79
2018-09-28T02:00:26.683Z,1015.79
2018-09-28T02:01:26.604Z,1015.77
2018-09-28T02:02:26.526Z,1015.78
2018-09-28T02:03:26.487Z,1015.78
2018-09-28T02:04:26.373Z,1015.75
2018-09-28T02:05:26.295Z,1015.76
2018-09-28T02:06:26.217Z,1015.73
2018-09-28T02:07:26.142Z,1015.73
2018-09-28T02:08:26.064Z,1015.75
2018-09-28T02:09:25.986Z,1015.71
2018-09-28T02:10:25.910Z,1015.70
2018-09-28T02:11:25.835Z,1015.73
2018-09-28T02:12:25.803Z,1015.76
2018-09-28T02:13:25.681Z,1015.75
2018-09-28T02:14:25.602Z,1015.76
2018-09-28T02:15:25.522Z,1015.77
2018-09-28T02:16:25.446Z,1015.80
2018-09-28T02:17:25.374Z,1015.86
2018-09-28T02:18:25.295Z,1015.84
2018-09-28T02:19:25.214Z,1015.82
2018-09-28T02:20:25.136Z,1015.83
2018-09-28T02:21:25.058Z,1015.86
2018-09-28T02:22:24.986Z,1015.83
2018-09-28T02:23:24.903Z,1015.88
2018-09-28T02:24:24.828Z,1015.86
2018-09-28T02:25:24.752Z,1015.79
2018-09-28T02:26:24.674Z,1015.81
2018-09-28T02:27:24.597Z,1015.80
2018-09-28T02:28:24.519Z,1015.82
2018-09-28T02:29:24.443Z,1015.82
2018-09-28T02:30:24.364Z,1015.78
2018-09-28T02:31:24.286Z,1015.84
2018-09-28T02:32:24.210Z,1015.77
2018-09-28T02:33:24.137Z,1015.76
2018-09-28T02:34:24.056Z,1015.75
2018-09-28T02:35:23.977Z,1015.76
2018-09-28T02:36:23.912Z,1015.71
2018-09-28T02:37:23.824Z,1015.73
2018-09-28T02:38:23.747Z,1015.76
2018-09-28T02:39:23.667Z,1015.71
2018-09-28T02:40:23.590Z,1015.75
2018-09-28T02:41:23.517Z,1015.75
2018-09-28T02:42:23.437Z,1015.71
2018-09-28T02:43:23.358Z,1015.68
2018-09-28T02:44:23.282Z,1015.66
2018-09-28T02:45:23.205Z,1015.64
2018-09-28T02:46:23.129Z,1015.63
2018-09-28T02:47:23.051Z,1015.61
2018-09-28T02:48:22.972Z,1015.63
2018-09-28T02:49:22.899Z,1015.60
2018-09-28T02:50:22.818Z,1015.57
2018-09-28T02:51:22.742Z,1015.56
2018-09-28T02:52:22.668Z,1015.54
2018-09-28T02:53:22.588Z,1015.56
2018-09-28T02:54:22.509Z,1015.52
2018-09-28T02:55:22.431Z,1015.54
2018-09-28T02:56:22.356Z,1015.53
2018-09-28T02:57:22.280Z,1015.55
2018-09-28T02:58:22.203Z,1015.52
2018-09-28T02:59:22.127Z,1015.50
2018-09-28T03:00:22.044Z,1015.53
2018-09-28T03:01:21.969Z,1015.50
2018-09-28T03:02:21.892Z,1015.56
2018-09-28T03:03:21.817Z,1015.53
2018-09-28T03:04:21.736Z,1015.53
2018-09-28T03:05:21.658Z,1015.57
2018-09-28T03:06:21.655Z,1015.58
2018-09-28T03:07:21.504Z,1015.57
2018-09-28T03:08:21.426Z,1015.64
2018-09-28T03:09:21.348Z,1015.68
2018-09-28T03:10:21.272Z,1015.73
2018-09-28T03:11:21.193Z,1015.66
2018-09-28T03:12:21.116Z,1015.73
2018-09-28T03:13:21.037Z,1015.69
2018-09-28T03:14:20.962Z,1015.71
2018-09-28T03:15:20.883Z,1015.72
2018-09-28T03:16:20.805Z,1015.73
2018-09-28T03:17:20.730Z,1015.77
2018-09-28T03:18:20.654Z,1015.69
2018-09-28T03:19:20.590Z,1015.76
2018-09-28T03:20:20.489Z,1015.72
2018-09-28T03:21:20.423Z,1015.63
2018-09-28T03:22:20.342Z,1015.59
2018-09-28T03:23:20.261Z,1015.62
2018-09-28T03:24:20.185Z,1015.62
2018-09-28T03:25:20.111Z,1015.63
2018-09-28T03:26:20.038Z,1015.61
2018-09-28T03:27:19.953Z,1015.61
2018-09-28T03:28:19.876Z,1015.60
2018-09-28T03:29:19.801Z,1015.65
2018-09-28T03:30:19.725Z,1015.63
2018-09-28T03:31:19.658Z,1015.64
2018-09-28T03:32:19.572Z,1015.65
2018-09-28T03:33:19.489Z,1015.62
2018-09-28T03:34:19.421Z,1015.64
2018-09-28T03:35:19.333Z,1015.69
2018-09-28T03:36:19.259Z,1015.73
2018-09-28T03:37:19.180Z,1015.77
2018-09-28T03:38:19.109Z,1015.72
2018-09-28T03:39:19.022Z,1015.66
2018-09-28T03:40:18.952Z,1015.66
2018-09-28T03:41:18.866Z,1015.62
2018-09-28T03:42:18.791Z,1015.64
2018-09-28T03:43:18.714Z,1015.62
2018-09-28T03:44:18.635Z,1015.64
2018-09-28T03:45:18.566Z,1015.64
2018-09-28T03:46:18.480Z,1015.62
2018-09-28T03:47:18.402Z,1015.68
2018-09-28T03:48:18.327Z,1015.67
2018-09-28T03:49:18.247Z,1015.66
2018-09-28T03:50:18.166Z,1015.69
2018-09-28T03:51:18.090Z,1015.67
2018-09-28T03:52:18.009Z,1015.74
2018-09-28T03:53:17.935Z,1015.77
2018-09-28T03:54:17.859Z,1015.82
2018-09-28T03:55:17.775Z,1015.81
2018-09-28T03:56:17.700Z,1015.80
2018-09-28T03:57:17.624Z,1015.81
2018-09-28T03:58:17.556Z,1015.78
2018-09-28T03:59:17.468Z,1015.80
2018-09-28T04:00:17.390Z,1015.74
2018-09-28T04:01:17.313Z,1015.76
2018-09-28T04:02:17.236Z,1015.76
2018-09-28T04:03:17.156Z,1015.74
2018-09-28T04:04:17.080Z,1015.78
2018-09-28T04:05:17.010Z,1015.73
2018-09-28T04:06:16.925Z,1015.78
2018-09-28T04:07:16.845Z,1015.74
2018-09-28T04:08:16.769Z,1015.74
2018-09-28T04:09:16.691Z,1015.79
2018-09-28T04:10:16.614Z,1015.73
2018-09-28T04:11:16.536Z,1015.76
2018-09-28T04:12:16.455Z,1015.79
2018-09-28T04:13:16.380Z,1015.86
2018-09-28T04:14:16.305Z,1015.82
2018-09-28T04:15:16.295Z,1015.89
2018-09-28T04:16:16.146Z,1015.89
2018-09-28T04:17:16.070Z,1015.88
2018-09-28T04:18:15.993Z,1015.90
2018-09-28T04:19:15.915Z,1015.87
2018-09-28T04:20:15.837Z,1015.82
2018-09-28T04:21:15.758Z,1015.83
2018-09-28T04:22:15.681Z,1015.79
2018-09-28T04:23:15.603Z,1015.82
2018-09-28T04:24:15.528Z,1015.78
2018-09-28T04:25:15.446Z,1015.80
2018-09-28T04:26:15.368Z,1015.80
2018-09-28T04:27:15.289Z,1015.82
2018-09-28T04:28:15.213Z,1015.80
2018-09-28T04:29:15.138Z,1015.83
2018-09-28T04:30:15.057Z,1015.86
2018-09-28T04:31:14.982Z,1015.88
2018-09-28T04:32:14.902Z,1015.87
2018-09-28T04:33:14.824Z,1015.93
2018-09-28T04:34:14.747Z,1015.96
2018-09-28T04:35:14.666Z,1015.97
2018-09-28T04:36:14.592Z,1015.99
2018-09-28T04:37:14.510Z,1015.96
2018-09-28T04:38:14.435Z,1015.99
2018-09-28T04:39:14.354Z,1016.01
2018-09-28T04:40:14.275Z,1016.01
2018-09-28T04:41:14.199Z,1015.99
2018-09-28T04:42:14.120Z,1016.01
2018-09-28T04:43:14.043Z,1016.06
2018-09-28T04:44:13.968Z,1016.00
2018-09-28T04:45:13.899Z,1016.03
2018-09-28T04:46:13.810Z,1016.03
2018-09-28T04:47:13.732Z,1015.99
2018-09-28T04:48:13.655Z,1016.00
2018-09-28T04:49:13.574Z,1016.01
2018-09-28T04:50:13.497Z,1016.00
2018-09-28T04:51:13.417Z,1015.98
2018-09-28T04:52:13.341Z,1016.04
2018-09-28T04:53:13.263Z,1016.03
2018-09-28T04:54:13.187Z,1016.08
2018-09-28T04:55:13.105Z,1016.09
2018-09-28T04:56:13.028Z,1016.04
2018-09-28T04:57:12.952Z,1016.02
2018-09-28T04:58:12.880Z,1016.03
2018-09-28T04:59:12.793Z,1016.08
2018-09-28T05:00:12.719Z,1016.07
2018-09-28T05:01:12.640Z,1016.10
2018-09-28T05:02:12.558Z,1016.03
2018-09-28T05:03:12.481Z,1016.04
2018-09-28T05:04:12.405Z,1016.05
2018-09-28T05:05:12.325Z,1016.11
2018-09-28T05:06:12.247Z,1016.12
2018-09-28T05:07:12.171Z,1016.12
2018-09-28T05:08:12.093Z,1016.15
2018-09-28T05:09:12.013Z,1016.16
2018-09-28T05:10:11.935Z,1016.20
2018-09-28T05:11:11.854Z,1016.27
2018-09-28T05:12:11.778Z,1016.25
2018-09-28T05:13:11.777Z,1016.26
2018-09-28T05:14:11.622Z,1016.26
2018-09-28T05:15:11.543Z,1016.29
2018-09-28T05:16:11.465Z,1016.34
2018-09-28T05:17:11.388Z,1016.36
2018-09-28T05:18:11.309Z,1016.34
2018-09-28T05:19:11.230Z,1016.36
2018-09-28T05:20:11.154Z,1016.41
2018-09-28T05:21:11.082Z,1016.44
2018-09-28T05:22:10.999Z,1016.45
2018-09-28T05:23:10.921Z,1016.44
2018-09-28T05:24:10.838Z,1016.44
2018-09-28T05:25:10.785Z,1016.43
2018-09-28T05:26:10.691Z,1016.46
2018-09-28T05:27:10.606Z,1016.48
2018-09-28T05:28:10.529Z,1016.48
2018-09-28T05:29:10.449Z,1016.51
2018-09-28T05:30:10.372Z,1016.46
2018-09-28T05:31:10.365Z,1016.47
2018-09-28T05:32:10.401Z,1016.51
2018-09-28T05:33:10.138Z,1016.53
2018-09-28T05:34:10.063Z,1016.53
2018-09-28T05:35:09.979Z,1016.49
2018-09-28T05:36:09.903Z,1016.51
2018-09-28T05:37:09.855Z,1016.55
2018-09-28T05:38:09.749Z,1016.52
2018-09-28T05:39:09.673Z,1016.54
2018-09-28T05:40:09.590Z,1016.55
2018-09-28T05:41:09.513Z,1016.60
2018-09-28T05:42:09.435Z,1016.61
2018-09-28T05:43:09.357Z,1016.62
2018-09-28T05:44:09.275Z,1016.67
2018-09-28T05:45:09.202Z,1016.65
2018-09-28T05:46:09.128Z,1016.68
2018-09-28T05:47:09.043Z,1016.71
2018-09-28T05:48:08.967Z,1016.72
2018-09-28T05:49:08.890Z,1016.71
2018-09-28T05:50:08.814Z,1016.71
2018-09-28T05:51:08.737Z,1016.76
2018-09-28T05:52:08.655Z,1016.77
2018-09-28T05:53:08.576Z,1016.76
2018-09-28T05:54:08.498Z,1016.75
2018-09-28T05:55:08.420Z,1016.78
2018-09-28T05:56:08.343Z,1016.80
2018-09-28T05:57:08.264Z,1016.80
2018-09-28T05:58:08.185Z,1016.79
2018-09-28T05:59:08.108Z,1016.78
2018-09-28T06:00:08.033Z,1016.79
2018-09-28T06:01:07.951Z,1016.85
2018-09-28T06:02:07.874Z,1016.87
2018-09-28T06:03:07.797Z,1016.82
2018-09-28T06:04:07.718Z,1016.83
2018-09-28T06:05:07.640Z,1016.84
2018-09-28T06:06:07.562Z,1016.82
2018-09-28T06:07:07.484Z,1016.85
2018-09-28T06:08:07.405Z,1016.87
2018-09-28T06:09:07.328Z,1016.89
2018-09-28T06:10:07.248Z,1016.84
2018-09-28T06:11:07.171Z,1016.87
2018-09-28T06:12:07.096Z,1016.87
2018-09-28T06:13:07.014Z,1016.83
2018-09-28T06:14:06.937Z,1016.84
2018-09-28T06:15:06.861Z,1016.84
2018-09-28T06:16:06.780Z,1016.84
2018-09-28T06:17:06.703Z,1016.84
2018-09-28T06:18:06.627Z,1016.87
2018-09-28T06:19:06.547Z,1016.91
2018-09-28T06:20:06.474Z,1016.80
2018-09-28T06:21:06.397Z,1016.79
2018-09-28T06:22:06.310Z,1016.78
2018-09-28T06:23:06.243Z,1016.81
2018-09-28T06:24:06.168Z,1016.88
2018-09-28T06:25:06.080Z,1016.88
2018-09-28T06:26:06.001Z,1016.88
2018-09-28T06:27:05.933Z,1016.91
2018-09-28T06:28:05.848Z,1016.88
2018-09-28T06:29:05.773Z,1016.92
2018-09-28T06:30:05.745Z,1016.92
2018-09-28T06:31:05.612Z,1016.91
2018-09-28T06:32:05.536Z,1016.90
2018-09-28T06:33:05.459Z,1016.91
2018-09-28T06:34:05.378Z,1016.95
2018-09-28T06:35:05.307Z,1016.89
2018-09-28T06:36:05.265Z,1016.92
2018-09-28T06:37:05.145Z,1016.92
2018-09-28T06:38:05.067Z,1016.98
2018-09-28T06:39:04.987Z,1017.01
2018-09-28T06:40:04.912Z,1017.09
2018-09-28T06:41:04.832Z,1017.11
2018-09-28T06:42:04.820Z,1017.13
2018-09-28T06:43:04.682Z,1017.10
2018-09-28T06:44:04.598Z,1017.08
2018-09-28T06:45:04.526Z,1017.10
2018-09-28T06:46:04.447Z,1017.11
2018-09-28T06:47:04.367Z,1017.11
2018-09-28T06:48:04.292Z,1017.12
2018-09-28T06:49:04.210Z,1017.17
2018-09-28T06:50:04.133Z,1017.14
2018-09-28T06:51:04.057Z,1017.15
2018-09-28T06:52:03.981Z,1017.18
2018-09-28T06:53:03.906Z,1017.18
2018-09-28T06:54:03.828Z,1017.18
2018-09-28T06:55:03.746Z,1017.21
2018-09-28T06:56:03.668Z,1017.20
2018-09-28T06:57:03.595Z,1017.21
2018-09-28T06:58:03.577Z,1017.29
2018-09-28T06:59:03.435Z,1017.30
2018-09-28T07:00:03.367Z,1017.32
2018-09-28T07:01:03.280Z,1017.35
2018-09-28T07:02:03.201Z,1017.40
2018-09-28T07:03:03.129Z,1017.42
2018-09-28T07:04:03.112Z,1017.46
2018-09-28T07:05:02.981Z,1017.48
2018-09-28T07:06:02.927Z,1017.47
2018-09-28T07:07:02.814Z,1017.44
2018-09-28T07:08:02.746Z,1017.49
2018-09-28T07:09:02.661Z,1017.50
2018-09-28T07:10:02.588Z,1017.53
2018-09-28T07:11:02.507Z,1017.51
2018-09-28T07:12:02.452Z,1017.52
2018-09-28T07:13:02.353Z,1017.64
2018-09-28T07:14:02.277Z,1017.60
2018-09-28T07:15:02.198Z,1017.56
2018-09-28T07:16:02.121Z,1017.58
2018-09-28T07:17:02.047Z,1017.59
2018-09-28T07:18:02.074Z,1017.59
2018-09-28T07:19:01.889Z,1017.59
2018-09-28T07:20:01.835Z,1017.65
2018-09-28T07:21:01.737Z,1017.64
2018-09-28T07:22:01.659Z,1017.68
2018-09-28T07:23:01.581Z,1017.67
2018-09-28T07:24:01.619Z,1017.69
2018-09-28T07:25:01.447Z,1017.68
2018-09-28T07:26:01.354Z,1017.67
2018-09-28T07:27:01.274Z,1017.65
2018-09-28T07:28:01.198Z,1017.72
2018-09-28T07:29:01.120Z,1017.71
2018-09-28T07:30:01.050Z,1017.71
2018-09-28T07:31:00.972Z,1017.71
2018-09-28T07:32:00.892Z,1017.65
2018-09-28T07:33:00.813Z,1017.70
2018-09-28T07:34:00.737Z,1017.73
2018-09-28T07:35:00.659Z,1017.68
2018-09-28T07:36:00.640Z,1017.71
2018-09-28T07:37:00.588Z,1017.72
2018-09-28T07:38:00.430Z,1017.70
2018-09-28T07:39:00.353Z,1017.73
2018-09-28T07:40:00.277Z,1017.75
2018-09-28T07:41:00.201Z,1017.78
2018-09-28T07:42:00.225Z,1017.82
2018-09-28T07:43:00.047Z,1017.86
2018-09-28T07:43:59.972Z,1017.85
2018-09-28T07:44:59.895Z,1017.89
2018-09-28T07:45:59.818Z,1017.93
2018-09-28T07:46:59.741Z,1017.93
2018-09-28T07:47:59.751Z,1017.92
2018-09-28T07:48:59.590Z,1017.92
2018-09-28T07:49:59.512Z,1017.92
2018-09-28T07:50:59.435Z,1017.93
2018-09-28T07:51:59.358Z,1017.95
2018-09-28T07:52:59.279Z,1017.90
2018-09-28T07:53:59.206Z,1017.95
2018-09-28T07:54:59.129Z,1017.98
2018-09-28T07:55:59.055Z,1017.99
2018-09-28T07:56:58.987Z,1017.99
2018-09-28T07:57:58.901Z,1018.05
2018-09-28T07:58:58.824Z,1018.08
2018-09-28T07:59:58.746Z,1018.09
2018-09-28T08:00:58.675Z,1018.08
2018-09-28T08:01:58.597Z,1018.08
2018-09-28T08:02:58.520Z,1018.11
2018-09-28T08:03:58.497Z,1018.11
2018-09-28T08:04:58.372Z,1018.11
2018-09-28T08:05:58.290Z,1018.16
2018-09-28T08:06:58.215Z,1018.11
2018-09-28T08:07:58.146Z,1018.10
2018-09-28T08:08:58.066Z,1018.08
2018-09-28T08:09:57.987Z,1018.09
2018-09-28T08:10:57.909Z,1018.09
2018-09-28T08:11:57.838Z,1018.08
2018-09-28T08:12:57.762Z,1018.10
2018-09-28T08:13:57.683Z,1018.07
2018-09-28T08:14:57.609Z,1018.13
2018-09-28T08:15:57.531Z,1018.14
2018-09-28T08:16:57.455Z,1018.17
2018-09-28T08:17:57.396Z,1018.17
2018-09-28T08:18:57.302Z,1018.17
2018-09-28T08:19:57.228Z,1018.18
2018-09-28T08:20:57.152Z,1018.24
2018-09-28T08:21:57.077Z,1018.27
2018-09-28T08:22:57.000Z,1018.30
2018-09-28T08:23:56.925Z,1018.29
2018-09-28T08:24:56.849Z,1018.29
2018-09-28T08:25:56.776Z,1018.32
2018-09-28T08:26:56.698Z,1018.35
2018-09-28T08:27:56.620Z,1018.37
2018-09-28T08:28:56.579Z,1018.38
2018-09-28T08:29:56.471Z,1018.35
2018-09-28T08:30:56.392Z,1018.30
2018-09-28T08:31:56.319Z,1018.37
2018-09-28T08:32:56.245Z,1018.34
2018-09-28T08:33:56.167Z,1018.32
2018-09-28T08:34:56.093Z,1018.38
2018-09-28T08:35:56.016Z,1018.34
2018-09-28T08:36:55.943Z,1018.40
2018-09-28T08:37:55.867Z,1018.40
2018-09-28T08:38:55.788Z,1018.42
2018-09-28T08:39:55.713Z,1018.45
2018-09-28T08:40:55.638Z,1018.47
2018-09-28T08:41:55.595Z,1018.49
2018-09-28T08:42:55.487Z,1018.53
2018-09-28T08:43:55.411Z,1018.49
2018-09-28T08:44:55.335Z,1018.57
2018-09-28T08:45:55.262Z,1018.56
2018-09-28T08:46:55.184Z,1018.63
2018-09-28T08:47:55.111Z,1018.61
2018-09-28T08:48:55.034Z,1018.63
2018-09-28T08:49:54.958Z,1018.70
2018-09-28T08:50:54.884Z,1018.64
2018-09-28T08:51:54.809Z,1018.63
2018-09-28T08:52:54.731Z,1018.62
2018-09-28T08:53:54.656Z,1018.63
2018-09-28T08:54:54.578Z,1018.67
2018-09-28T08:55:54.507Z,1018.62
2018-09-28T08:56:54.426Z,1018.68
2018-09-28T08:57:54.357Z,1018.68
2018-09-28T08:58:54.276Z,1018.70
2018-09-28T08:59:54.200Z,1018.67
2018-09-28T09:00:54.130Z,1018.71
2018-09-28T09:01:54.051Z,1018.73
2018-09-28T09:02:53.972Z,1018.72
2018-09-28T09:03:53.899Z,1018.77
2018-09-28T09:04:53.823Z,1018.81
2018-09-28T09:05:53.753Z,1018.82
2018-09-28T09:06:53.671Z,1018.84
2018-09-28T09:07:53.596Z,1018.86
2018-09-28T09:08:53.524Z,1018.92
2018-09-28T09:09:53.444Z,1018.89
2018-09-28T09:10:53.368Z,1018.88
2018-09-28T09:11:53.291Z,1018.85
2018-09-28T09:12:53.220Z,1018.89
2018-09-28T09:13:53.143Z,1018.91
2018-09-28T09:14:53.068Z,1018.92
2018-09-28T09:15:52.991Z,1018.94
2018-09-28T09:16:52.915Z,1018.92
2018-09-28T09:17:52.914Z,1018.95
2018-09-28T09:18:52.766Z,1018.94
2018-09-28T09:19:52.694Z,1018.93
2018-09-28T09:20:52.616Z,1018.97
2018-09-28T09:21:52.538Z,1019.02
2018-09-28T09:22:52.464Z,1019.00
2018-09-28T09:23:52.450Z,1019.05
2018-09-28T09:24:52.316Z,1019.10
2018-09-28T09:25:52.239Z,1019.05
2018-09-28T09:26:52.161Z,1019.11
2018-09-28T09:27:52.087Z,1019.13
2018-09-28T09:28:52.013Z,1019.17
2018-09-28T09:29:51.935Z,1019.18
2018-09-28T09:30:51.876Z,1019.16
2018-09-28T09:31:51.783Z,1019.14
2018-09-28T09:32:51.709Z,1019.06
2018-09-28T09:33:51.637Z,1019.08
2018-09-28T09:34:51.557Z,1019.05
2018-09-28T09:35:51.481Z,1019.10
2018-09-28T09:36:51.408Z,1019.08
2018-09-28T09:37:51.332Z,1019.12
2018-09-28T09:38:51.254Z,1019.08
2018-09-28T09:39:51.180Z,1019.11
2018-09-28T09:40:51.105Z,1019.13
2018-09-28T09:41:51.028Z,1019.12
2018-09-28T09:42:50.954Z,1019.09
2018-09-28T09:43:50.878Z,1019.09
2018-09-28T09:44:50.804Z,1019.10
2018-09-28T09:45:50.728Z,1019.12
2018-09-28T09:46:50.646Z,1019.11
2018-09-28T09:47:50.578Z,1019.10
2018-09-28T09:48:50.503Z,1019.09
2018-09-28T09:49:50.425Z,1019.08
2018-09-28T09:50:50.347Z,1019.12
2018-09-28T09:51:50.275Z,1019.09
2018-09-28T09:52:50.197Z,1019.10
2018-09-28T09:53:50.131Z,1019.13
2018-09-28T09:54:50.045Z,1019.18
2018-09-28T09:55:49.971Z,1019.14
2018-09-28T09:56:49.894Z,1019.13
2018-09-28T09:57:49.913Z,1019.19
2018-09-28T09:58:49.742Z,1019.18
2018-09-28T09:59:49.669Z,1019.20
2018-09-28T10:00:49.593Z,1019.21
2018-09-28T10:01:49.516Z,1019.18
2018-09-28T10:02:49.442Z,1019.23
2018-09-28T10:03:49.371Z,1019.19
2018-09-28T10:04:49.289Z,1019.18
2018-09-28T10:05:49.215Z,1019.25
2018-09-28T10:06:49.137Z,1019.28
2018-09-28T10:07:49.064Z,1019.28
2018-09-28T10:08:48.989Z,1019.33
2018-09-28T10:09:48.971Z,1019.33
2018-09-28T10:10:48.838Z,1019.37
2018-09-28T10:11:48.762Z,1019.38
2018-09-28T10:12:48.711Z,1019.35
2018-09-28T10:13:48.613Z,1019.34
2018-09-28T10:14:48.534Z,1019.35
2018-09-28T10:15:48.459Z,1019.31
2018-09-28T10:16:48.385Z,1019.36
2018-09-28T10:17:48.312Z,1019.37
2018-09-28T10:18:48.234Z,1019.40
2018-09-28T10:19:48.200Z,1019.43
2018-09-28T10:20:48.084Z,1019.39
2018-09-28T10:21:48.019Z,1019.37
2018-09-28T10:22:47.927Z,1019.34
2018-09-28T10:23:47.861Z,1019.31
2018-09-28T10:24:47.778Z,1019.26
2018-09-28T10:25:47.708Z,1019.27
2018-09-28T10:26:47.626Z,1019.23
2018-09-28T10:27:47.638Z,1019.27
2018-09-28T10:28:47.481Z,1019.24
2018-09-28T10:29:47.408Z,1019.27
2018-09-28T10:30:47.325Z,1019.25
2018-09-28T10:31:47.247Z,1019.28
2018-09-28T10:32:47.172Z,1019.28
2018-09-28T10:33:47.103Z,1019.27
2018-09-28T10:34:47.126Z,1019.27
2018-09-28T10:35:46.949Z,1019.32
2018-09-28T10:36:46.869Z,1019.28
2018-09-28T10:37:46.791Z,1019.28
2018-09-28T10:38:46.783Z,1019.32
2018-09-28T10:39:46.686Z,1019.32
2018-09-28T10:40:46.647Z,1019.31
2018-09-28T10:41:46.493Z,1019.30
2018-09-28T10:42:46.416Z,1019.29
2018-09-28T10:43:46.339Z,1019.31
2018-09-28T10:44:46.266Z,1019.31
2018-09-28T10:45:46.215Z,1019.30
2018-09-28T10:46:46.147Z,1019.32
2018-09-28T10:47:46.034Z,1019.35
2018-09-28T10:48:45.961Z,1019.38
2018-09-28T10:49:45.885Z,1019.35
2018-09-28T10:50:45.817Z,1019.33
2018-09-28T10:51:45.789Z,1019.36
2018-09-28T10:52:45.741Z,1019.39
2018-09-28T10:53:45.584Z,1019.35
2018-09-28T10:54:45.507Z,1019.33
2018-09-28T10:55:45.437Z,1019.34
2018-09-28T10:56:45.356Z,1019.33
2018-09-28T10:57:45.282Z,1019.32
2018-09-28T10:58:45.266Z,1019.35
2018-09-28T10:59:45.130Z,1019.33
2018-09-28T11:00:45.057Z,1019.32
2018-09-28T11:01:44.978Z,1019.35
2018-09-28T11:02:44.902Z,1019.29
2018-09-28T11:03:44.880Z,1019.36
2018-09-28T11:04:44.795Z,1019.38
2018-09-28T11:05:44.675Z,1019.32
2018-09-28T11:06:44.605Z,1019.35
2018-09-28T11:07:44.523Z,1019.38
2018-09-28T11:08:44.455Z,1019.41
2018-09-28T11:09:44.438Z,1019.39
2018-09-28T11:10:44.310Z,1019.43
2018-09-28T11:11:44.223Z,1019.45
2018-09-28T11:12:44.147Z,1019.44
2018-09-28T11:13:44.072Z,1019.42
2018-09-28T11:14:44.001Z,1019.43
2018-09-28T11:15:43.960Z,1019.40
2018-09-28T11:16:43.843Z,1019.36
2018-09-28T11:17:43.770Z,1019.31
2018-09-28T11:18:43.703Z,1019.33
2018-09-28T11:19:43.619Z,1019.32
2018-09-28T11:20:43.545Z,1019.28
2018-09-28T11:21:43.562Z,1019.27
2018-09-28T11:22:43.398Z,1019.31
2018-09-28T11:23:43.319Z,1019.32
2018-09-28T11:24:43.243Z,1019.30
2018-09-28T11:25:43.168Z,1019.29
2018-09-28T11:26:43.094Z,1019.27
2018-09-28T11:27:43.025Z,1019.27
2018-09-28T11:28:42.940Z,1019.23
2018-09-28T11:29:42.872Z,1019.23
2018-09-28T11:30:42.791Z,1019.27
2018-09-28T11:31:42.721Z,1019.27
2018-09-28T11:32:42.650Z,1019.27
2018-09-28T11:33:42.627Z,1019.28
2018-09-28T11:34:42.493Z,1019.34
2018-09-28T11:35:42.414Z,1019.30
2018-09-28T11:36:42.339Z,1019.33
2018-09-28T11:37:42.327Z,1019.34
2018-09-28T11:38:42.189Z,1019.32
2018-09-28T11:39:42.138Z,1019.35
2018-09-28T11:40:42.040Z,1019.36
2018-09-28T11:41:41.964Z,1019.31
2018-09-28T11:42:41.887Z,1019.32
2018-09-28T11:43:41.817Z,1019.34
2018-09-28T11:44:41.737Z,1019.35
2018-09-28T11:45:41.735Z,1019.31
2018-09-28T11:46:41.588Z,1019.31
2018-09-28T11:47:41.513Z,1019.33
2018-09-28T11:48:41.435Z,1019.37
2018-09-28T11:49:41.363Z,1019.42
2018-09-28T11:50:41.289Z,1019.45
2018-09-28T11:51:41.266Z,1019.46
2018-09-28T11:52:41.136Z,1019.40
2018-09-28T11:53:41.064Z,1019.43
2018-09-28T11:54:40.988Z,1019.47
2018-09-28T11:55:40.917Z,1019.47
2018-09-28T11:56:40.838Z,1019.47
2018-09-28T11:57:40.821Z,1019.44
2018-09-28T11:58:40.687Z,1019.45
2018-09-28T11:59:40.614Z,1019.46
2018-09-28T12:00:40.537Z,1019.42
2018-09-28T12:01:40.463Z,1019.40
2018-09-28T12:02:40.387Z,1019.38
2018-09-28T12:03:40.338Z,1019.42
2018-09-28T12:04:40.270Z,1019.44